Home > Products > Valid Products > TAF

000
FTUS44 KAMA 310500
TAFGUY
TAF
KGUY 310520Z 3106/0106 16008KT P6SM -RA OVC030
     FM311100 20012KT 4SM -RA OVC010
     FM010200 20008KT P6SM SCT030=



000
FTUS44 KAMA 310500
TAFDHT
TAF
KDHT 310520Z 3106/0106 18010KT 4SM -RASNPL BR OVC020
     FM311000 18008KT 2SM -RASN OVC005
     FM311700 20012KT 4SM RA BR OVC007
     FM010000 22006KT P6SM OVC010=



000
FTUS44 KAMA 310500
TAFAMA
TAF
KAMA 310520Z 3106/0106 15012KT 4SM -RASNPL BR OVC015
     FM311000 18010KT 2SM -RAPLSN OVC005
     FM311600 14008KT 4SM RA BR OVC005
     FM010000 20006KT P6SM OVC008=



000
FTUS44 KAMA 310300 AAA
TAFGUY
TAF AMD
KGUY 310344Z 3104/3124 16008KT P6SM -RA OVC030
     FM311400 20012KT P6SM OVC025
     FM312000 20008KT P6SM SCT030=



000
FTUS44 KAMA 310300 AAA
TAFDHT
TAF AMD
KDHT 310337Z 3104/3124 18010KT P6SM OVC020
      TEMPO 3104/3108 4SM -RAPL BR OVC008
     FM310800 18010KT 2SM -RASNPL BR OVC004
     FM311700 22012KT 3SM RA BR OVC007=



000
FTUS44 KAMA 310300 AAA
TAFAMA
TAF AMD
KAMA 310334Z 3104/3124 16010KT P6SM OVC025
      TEMPO 3104/3108 4SM -RAPL BR BKN010
     FM310800 17012KT 2SM -RAPLSN BR OVC005
     FM311600 14008KT 3SM RA BR OVC005=



000
FTUS44 KAMA 302300
TAFGUY
TAF
KGUY 302333Z 3100/3124 18008KT P6SM OVC050
      TEMPO 3100/3104 4SM -RASN BR OVC025
     FM310400 18012KT 3SM -RASN BR OVC010
     FM310800 18010KT 2SM -SN BR OVC004
     FM311600 20012KT 3SM RA BR OVC010=



000
FTUS44 KAMA 302300
TAFAMA
TAF
KAMA 302333Z 3100/3124 16008KT P6SM OVC040
      TEMPO 3100/3104 4SM -RAPL BR BKN025
     FM310400 17012KT 2SM -RAPLSN BR OVC005
     FM311600 14008KT 3SM RA BR OVC005=



000
FTUS44 KAMA 302300
TAFDHT
TAF
KDHT 302333Z 3100/3124 20010KT P6SM OVC030
      TEMPO 3100/3104 4SM -RASN BR OVC008
     FM310400 18010KT 1SM -SN BR OVC004
     FM311700 22012KT 3SM RA BR OVC007=



000
FTUS44 KAMA 302200 AAB
TAFAMA
TAF AMD
KAMA 302208Z 3022/3118 16010KT 6SM -RA OVC050
     FM302300 18010KT 5SM -RAPL BKN025 OVC050
     FM310300 16010KT 3SM -RASNPL BR OVC006=



000
FTUS44 KAMA 302200 AAD
TAFDHT
TAF AMD
KDHT 302204Z 3022/3118 20010KT 6SM -SN SCT008 OVC035
     FM310000 18010KT 3SM -SN BR OVC006
     FM310300 18010KT 1SM -SN BR OVC002=



000
FTUS44 KAMA 302000 AAC
TAFDHT
TAF AMD
KDHT 302032Z 3021/3118 20010KT P6SM SCT025 OVC040
      TEMPO 3021/3023 5SM -RA BKN025
     FM310000 18010KT 3SM -RASN BR OVC006
     FM310300 18010KT 1SM -SN BR OVC002=



000
FTUS44 KAMA 302000 AAB
TAFDHT
TAF AMD
KDHT 302014Z 3020/3118 18010KT 5SM -RA BKN025 OVC040
     FM310000 18010KT 3SM -RASN BR OVC006
     FM310300 18010KT 1SM -SN BR OVC002=



000
FTUS44 KAMA 302000 AAA
TAFAMA
TAF AMD
KAMA 302010Z 3020/3118 16012KT P6SM OVC080
     FM302100 18010KT 5SM -RA BKN025 OVC050
     FM310300 16010KT 3SM -RASNPL BR OVC006=



000
FTUS44 KAMA 301900 AAA
TAFDHT
TAF AMD
KDHT 301958Z 3020/3118 18010KT P6SM OVC080
     FM310000 18010KT 3SM -RASN BR OVC006
     FM310300 18010KT 1SM -SN BR OVC002=



000
FTUS44 KAMA 301700 RRA
TAFAMA
TAF
KAMA 301744Z 3018/3118 16012KT P6SM OVC080
     FM310000 15012KT P6SM -RA OVC020
     FM310300 16010KT 3SM -RASNPL BR OVC006=



000
FTUS44 KAMA 301700 RRA
TAFGUY
TAF
KGUY 301744Z 3018/3118 18012KT P6SM OVC100
     FM310200 18012KT 5SM -RASN BR OVC010
     FM310800 18010KT 2SM -SN BR OVC004=



000
FTUS44 KAMA 301700 RRA
TAFDHT
TAF
KDHT 301744Z 3018/3118 18012KT P6SM OVC080
     FM310000 18010KT 3SM -RASN BR OVC006
     FM310300 18010KT 1SM -SN BR OVC002=



000
FTUS44 KAMA 301100
TAFAMA
TAF
KAMA 301135Z 3012/3112 14009KT P6SM OVC100
     FM301500 16011KT P6SM OVC050
     FM302100 17012KT P6SM OVC020
     FM310100 17012KT 3SM -RASN BR OVC007=



000
FTUS44 KAMA 301100
TAFDHT
TAF
KDHT 301135Z 3012/3112 19007KT P6SM OVC100
     FM301500 19014KT P6SM OVC050
     FM301900 18012KT P6SM OVC020
     FM310100 18010KT 3SM -RASN BR OVC007=



000
FTUS44 KAMA 301100
TAFGUY
TAF
KGUY 301135Z 3012/3112 17005KT P6SM BKN120
     FM301700 18014KT P6SM OVC050
     FM302200 18014KT P6SM OVC025
     FM310100 18012KT 5SM -RASN BR OVC010=



000
FTUS44 KAMA 300500
TAFDHT
TAF
KDHT 300521Z 3006/3106 19006KT P6SM BKN110
     FM301600 19014KT P6SM OVC050
     FM302000 19014KT P6SM OVC015
      TEMPO 3020/3024 5SM -RASN BR
     FM310000 19012KT 5SM -RASN BR OVC010=



000
FTUS44 KAMA 300500
TAFAMA
TAF
KAMA 300521Z 3006/3106 14009KT P6SM SCT100 OVC300
     FM301500 17011KT P6SM OVC050
     FM302100 18011KT P6SM OVC015
      TEMPO 3021/3101 5SM -RASN BR
     FM310100 17012KT 5SM -RASN BR OVC010=



000
FTUS44 KAMA 300500
TAFGUY
TAF
KGUY 300521Z 3006/3106 18005KT P6SM SCT100 OVC300
     FM301500 19012KT P6SM OVC060
     FM302100 19014KT P6SM OVC025
      TEMPO 3021/3101 5SM -RASN BR
     FM310100 18012KT 5SM -RASN BR OVC015=



000
FTUS44 KAMA 292300
TAFDHT
TAF
KDHT 292320Z 3000/3024 10007KT P6SM OVC080
     FM301000 19008KT P6SM OVC040
     FM301700 20012KT P6SM OVC020=



000
FTUS44 KAMA 292300
TAFGUY
TAF
KGUY 292320Z 3000/3024 04008KT P6SM OVC100
     FM300500 16006KT P6SM OVC080
     FM301200 18008KT P6SM OVC050
     FM302000 19012KT P6SM OVC025=



000
FTUS44 KAMA 292300
TAFAMA
TAF
KAMA 292320Z 3000/3024 03008KT P6SM OVC090
     FM300400 10008KT P6SM OVC080
     FM301000 16009KT P6SM OVC040
     FM301800 18011KT P6SM OVC020=



000
FTUS44 KAMA 291900 AAA
TAFDHT
TAF AMD
KDHT 291941Z 2920/3018 02018KT P6SM OVC090
     FM292300 07007KT P6SM OVC080
     FM301400 19010KT P6SM SCT010 OVC025=



000
FTUS44 KAMA 291900 AAA
TAFAMA
TAF AMD
KAMA 291940Z 2920/3018 02018KT P6SM OVC090
     FM300100 09007KT P6SM OVC080
     FM301600 17008KT P6SM SCT010 OVC030=



000
FTUS44 KAMA 291700
TAFDHT
TAF
KDHT 291720Z 2918/3018 02018G28KT P6SM OVC090
     FM292300 07007KT P6SM OVC080
     FM301400 19010KT P6SM SCT010 OVC025=



000
FTUS44 KAMA 291700
TAFGUY
TAF
KGUY 291720Z 2918/3018 01016KT P6SM OVC110
     FM292200 03008KT P6SM OVC100
     FM301400 19011KT P6SM OVC080
     FM301600 19013KT P6SM SCT015 OVC050=



000
FTUS44 KAMA 291700
TAFAMA
TAF
KAMA 291720Z 2918/3018 02019G29KT P6SM OVC090
     FM292200 02012KT P6SM OVC080
     FM300100 09007KT P6SM OVC080
     FM301600 17008KT P6SM SCT010 OVC030=



000
FTUS44 KAMA 291600 AAA
TAFGUY
TAF AMD
KGUY 291613Z 2916/3012 36016KT P6SM OVC250
     FM291700 01019G28KT P6SM OVC250
     FM300000 05008KT P6SM OVC200
     FM300800 14008KT P6SM OVC200=



000
FTUS44 KAMA 291100
TAFAMA
TAF
KAMA 291120Z 2912/3012 36014KT P6SM OVC250
     FM291500 01020G29KT P6SM OVC250
     FM300000 04008KT P6SM OVC200
     FM300600 14008KT P6SM OVC150=



000
FTUS44 KAMA 291100
TAFGUY
TAF
KGUY 291120Z 2912/3012 35016KT P6SM OVC250
     FM291500 01019G28KT P6SM OVC250
     FM300000 05008KT P6SM OVC200
     FM300800 14008KT P6SM OVC200=



000
FTUS44 KAMA 291100
TAFDHT
TAF
KDHT 291120Z 2912/3012 36016KT P6SM OVC250
     FM291500 02019G28KT P6SM OVC250
     FM300000 07008KT P6SM OVC200
     FM300700 22008KT P6SM OVC150=



000
FTUS44 KAMA 290500
TAFDHT
TAF
KDHT 290540Z 2906/3006 01012KT P6SM BKN300
     FM291400 02017G27KT P6SM SCT100 OVC300
     FM292200 06008KT P6SM SCT050 OVC100=



000
FTUS44 KAMA 290500
TAFAMA
TAF
KAMA 290540Z 2906/3006 01012KT P6SM BKN300
     FM291300 01018G28KT P6SM SCT120 OVC300
     FM292300 05010KT P6SM SCT070 OVC120=



000
FTUS44 KAMA 290500
TAFGUY
TAF
KGUY 290540Z 2906/3006 35012KT P6SM BKN300
     FM291500 01016G24KT P6SM SCT100 OVC300
     FM292200 04008KT P6SM SCT070 OVC150=



000
FTUS44 KAMA 282300 RRA
TAFAMA
TAF
KAMA 282350Z 2900/2924 VRB05KT P6SM BKN300
     FM290700 01011KT P6SM BKN300
     FM291300 01018G28KT P6SM SCT120 OVC300=



000
FTUS44 KAMA 282300 RRA
TAFDHT
TAF
KDHT 282350Z 2900/2924 VRB06KT P6SM BKN300
     FM290400 01010KT P6SM BKN300
     FM291400 02017G27KT P6SM SCT050 OVC150=



000
FTUS44 KAMA 282300 RRA
TAFGUY
TAF
KGUY 282350Z 2900/2924 34009KT P6SM BKN300
     FM291500 01016G24KT P6SM SCT100 OVC300=



000
FTUS44 KAMA 282000 AAA
TAFDHT
TAF AMD
KDHT 282001Z 2820/2918 34008KT P6SM SCT200
     FM291400 01017G27KT P6SM OVC040=



000
FTUS44 KAMA 282000 AAA
TAFAMA
TAF AMD
KAMA 282000Z 2820/2918 34008KT P6SM SCT200
     FM291400 01018G28KT P6SM OVC150=



000
FTUS44 KAMA 281700
TAFGUY
TAF
KGUY 281729Z 2818/2918 35015G25KT P6SM SCT300
     FM282300 30008KT P6SM SCT200
     FM291500 36018G27KT P6SM OVC100=



000
FTUS44 KAMA 281700
TAFDHT
TAF
KDHT 281729Z 2818/2918 33015KT P6SM SCT300
     FM282300 34008KT P6SM SCT200
     FM291400 01017G27KT P6SM OVC040=



000
FTUS44 KAMA 281700
TAFAMA
TAF
KAMA 281729Z 2818/2918 30018KT P6SM SCT300
     FM290000 30007KT P6SM SCT200
     FM291400 01018G28KT P6SM OVC150=



000
FTUS44 KAMA 281600 AAA
TAFGUY
TAF AMD
KGUY 281603Z 2816/2912 34015G25KT P6SM SCT300=



000
FTUS44 KAMA 281100
TAFGUY
TAF
KGUY 281124Z 2812/2912 23009KT P6SM SKC
     FM281300 27010KT P6SM SCT300 WS016/32046KT
     FM281700 33015KT P6SM SCT300=



000
FTUS44 KAMA 281100
TAFAMA
TAF
KAMA 281124Z 2812/2912 22010KT P6SM SKC
     FM281600 27013KT P6SM SCT300
     FM281900 32011KT P6SM SCT300
     FM290000 36007KT P6SM SCT100=



000
FTUS44 KAMA 281100
TAFDHT
TAF
KDHT 281124Z 2812/2912 27008KT P6SM SCT300
     FM281700 33010KT P6SM SCT300
     FM282200 01008KT P6SM SCT100=



000
FTUS44 KAMA 280600 AAA
TAFAMA
TAF AMD
KAMA 280659Z 2807/2906 20010KT P6SM SKC
     FM281600 27013KT P6SM SCT300
     FM281900 32011KT P6SM SCT300
     FM290000 36007KT P6SM SCT300=



000
FTUS44 KAMA 280600 AAA
TAFAMA
TAF AMD
KAMA 280659Z 2807/2906 20010KT P6SM SKC
     FM281600 27013KT P6SM SCT300
     FM281900 32011KT P6SM SCT300
     FM290000 36007KT P6SM SCT300=



    US Dept of Commerce
    National Oceanic and Atmospheric Administration
    National Weather Service
    1325 East West Highway
    Silver Spring, MD 20910
    Page Author: NWS Internet Services Team
Disclaimer
Information Quality
Credits
Glossary
Privacy Policy
Freedom of Information Act (FOIA)
About Us
Career Opportunities